sensor_id;sensor_type;location;lat;lon;timestamp;pressure;altitude;pressure_sealevel;temperature;humidity
43757;BME280;73222;41.866;12.462;2024-03-02T00:01:10;100435.50;;;11.19;100.00
43757;BME280;73222;41.866;12.462;2024-03-02T00:03:37;100441.56;;;11.15;100.00
43757;BME280;73222;41.866;12.462;2024-03-02T00:06:03;100442.41;;;11.12;100.00
43757;BME280;73222;41.866;12.462;2024-03-02T00:08:29;100444.13;;;11.10;100.00
43757;BME280;73222;41.866;12.462;2024-03-02T00:10:58;100445.88;;;11.08;100.00
43757;BME280;73222;41.866;12.462;2024-03-02T00:13:24;100451.06;;;11.10;100.00
43757;BME280;73222;41.866;12.462;2024-03-02T00:18:26;100459.69;;;11.15;100.00
43757;BME280;73222;41.866;12.462;2024-03-02T00:20:55;100463.13;;;11.09;100.00
43757;BME280;73222;41.866;12.462;2024-03-02T00:23:22;100478.69;;;11.06;100.00
43757;BME280;73222;41.866;12.462;2024-03-02T00:25:49;100479.56;;;11.01;100.00
43757;BME280;73222;41.866;12.462;2024-03-02T00:28:26;100488.19;;;11.07;100.00
43757;BME280;73222;41.866;12.462;2024-03-02T00:31:02;100494.22;;;11.00;100.00
43757;BME280;73222;41.866;12.462;2024-03-02T00:33:36;100489.03;;;11.00;100.00
43757;BME280;73222;41.866;12.462;2024-03-02T00:36:03;100495.94;;;10.95;100.00
43757;BME280;73222;41.866;12.462;2024-03-02T00:38:29;100502.00;;;10.91;100.00
43757;BME280;73222;41.866;12.462;2024-03-02T00:40:56;100499.41;;;10.91;100.00
43757;BME280;73222;41.866;12.462;2024-03-02T00:46:04;100511.47;;;10.82;100.00
43757;BME280;73222;41.866;12.462;2024-03-02T00:48:30;100510.59;;;10.82;100.00
43757;BME280;73222;41.866;12.462;2024-03-02T00:51:02;100503.72;;;10.82;100.00
43757;BME280;73222;41.866;12.462;2024-03-02T00:53:31;100507.16;;;10.84;100.00
43757;BME280;73222;41.866;12.462;2024-03-02T00:55:59;100501.97;;;10.84;100.00
43757;BME280;73222;41.866;12.462;2024-03-02T00:58:27;100512.34;;;10.84;100.00
43757;BME280;73222;41.866;12.462;2024-03-02T01:00:53;100508.03;;;10.86;100.00
43757;BME280;73222;41.866;12.462;2024-03-02T01:03:18;100506.31;;;10.84;100.00
43757;BME280;73222;41.866;12.462;2024-03-02T01:05:44;100507.19;;;10.88;100.00
43757;BME280;73222;41.866;12.462;2024-03-02T01:08:10;100509.75;;;10.84;100.00
43757;BME280;73222;41.866;12.462;2024-03-02T01:10:36;100508.03;;;10.83;100.00
43757;BME280;73222;41.866;12.462;2024-03-02T01:13:01;100503.72;;;10.89;100.00
43757;BME280;73222;41.866;12.462;2024-03-02T01:15:27;100506.28;;;10.85;100.00
43757;BME280;73222;41.866;12.462;2024-03-02T01:17:52;100512.38;;;10.83;100.00
43757;BME280;73222;41.866;12.462;2024-03-02T01:20:18;100520.97;;;10.86;100.00
43757;BME280;73222;41.866;12.462;2024-03-02T01:22:43;100524.44;;;10.82;100.00
43757;BME280;73222;41.866;12.462;2024-03-02T01:25:08;100527.88;;;10.77;100.00
43757;BME280;73222;41.866;12.462;2024-03-02T01:27:34;100526.13;;;10.72;100.00
43757;BME280;73222;41.866;12.462;2024-03-02T01:29:59;100527.00;;;10.70;100.00
43757;BME280;73222;41.866;12.462;2024-03-02T01:32:25;100532.19;;;10.64;100.00
43757;BME280;73222;41.866;12.462;2024-03-02T01:34:51;100532.19;;;10.67;100.00
43757;BME280;73222;41.866;12.462;2024-03-02T01:37:16;100539.09;;;10.69;100.00
43757;BME280;73222;41.866;12.462;2024-03-02T01:39:41;100535.63;;;10.66;100.00
43757;BME280;73222;41.866;12.462;2024-03-02T01:42:07;100545.13;;;10.70;100.00
43757;BME280;73222;41.866;12.462;2024-03-02T01:44:32;100539.94;;;10.67;100.00
43757;BME280;73222;41.866;12.462;2024-03-02T01:46:58;100545.13;;;10.70;100.00
43757;BME280;73222;41.866;12.462;2024-03-02T01:49:23;100538.22;;;10.69;100.00
43757;BME280;73222;41.866;12.462;2024-03-02T01:51:48;100531.31;;;10.69;100.00
43757;BME280;73222;41.866;12.462;2024-03-02T01:54:14;100535.63;;;10.75;100.00
43757;BME280;73222;41.866;12.462;2024-03-02T01:56:40;100542.53;;;10.71;100.00
43757;BME280;73222;41.866;12.462;2024-03-02T01:59:06;100532.16;;;10.70;100.00
43757;BME280;73222;41.866;12.462;2024-03-02T02:01:31;100531.31;;;10.74;100.00
43757;BME280;73222;41.866;12.462;2024-03-02T02:03:57;100527.00;;;10.70;100.00
43757;BME280;73222;41.866;12.462;2024-03-02T02:06:22;100520.97;;;10.69;100.00
43757;BME280;73222;41.866;12.462;2024-03-02T02:08:48;100525.28;;;10.66;100.00
43757;BME280;73222;41.866;12.462;2024-03-02T02:11:16;100516.63;;;10.67;100.00
43757;BME280;73222;41.866;12.462;2024-03-02T02:13:42;100518.38;;;10.65;100.00
43757;BME280;73222;41.866;12.462;2024-03-02T02:16:08;100514.91;;;10.66;100.00
43757;BME280;73222;41.866;12.462;2024-03-02T02:18:34;100512.31;;;10.66;100.00
43757;BME280;73222;41.866;12.462;2024-03-02T02:21:00;100515.81;;;10.71;100.00
43757;BME280;73222;41.866;12.462;2024-03-02T02:23:25;100514.94;;;10.72;100.00
43757;BME280;73222;41.866;12.462;2024-03-02T02:25:51;100517.53;;;10.72;100.00
43757;BME280;73222;41.866;12.462;2024-03-02T02:28:16;100518.38;;;10.74;100.00
43757;BME280;73222;41.866;12.462;2024-03-02T02:30:41;100516.69;;;10.79;100.00
43757;BME280;73222;41.866;12.462;2024-03-02T02:33:08;100514.91;;;10.78;100.00
43757;BME280;73222;41.866;12.462;2024-03-02T02:35:33;100520.13;;;10.81;100.00
43757;BME280;73222;41.866;12.462;2024-03-02T02:37:58;100504.59;;;10.81;100.00
43757;BME280;73222;41.866;12.462;2024-03-02T02:40:24;100512.38;;;10.83;100.00
43757;BME280;73222;41.866;12.462;2024-03-02T02:42:50;100499.41;;;10.84;100.00
43757;BME280;73222;41.866;12.462;2024-03-02T02:45:17;100497.69;;;10.80;100.00
43757;BME280;73222;41.866;12.462;2024-03-02T02:47:43;100497.69;;;10.80;100.00
43757;BME280;73222;41.866;12.462;2024-03-02T02:50:09;100499.38;;;10.78;100.00
43757;BME280;73222;41.866;12.462;2024-03-02T02:52:36;100493.34;;;10.82;100.00
43757;BME280;73222;41.866;12.462;2024-03-02T02:55:04;100491.63;;;10.77;100.00
43757;BME280;73222;41.866;12.462;2024-03-02T02:57:31;100490.78;;;10.79;100.00
43757;BME280;73222;41.866;12.462;2024-03-02T03:00:00;100492.50;;;10.83;100.00
43757;BME280;73222;41.866;12.462;2024-03-02T03:02:28;100493.34;;;10.82;100.00
43757;BME280;73222;41.866;12.462;2024-03-02T03:04:53;100493.34;;;10.82;100.00
43757;BME280;73222;41.866;12.462;2024-03-02T03:07:18;100500.28;;;10.85;100.00
43757;BME280;73222;41.866;12.462;2024-03-02T03:09:44;100485.59;;;10.89;100.00
43757;BME280;73222;41.866;12.462;2024-03-02T03:12:09;100490.78;;;10.79;100.00
43757;BME280;73222;41.866;12.462;2024-03-02T03:14:34;100485.59;;;10.79;100.00
43757;BME280;73222;41.866;12.462;2024-03-02T03:17:00;100491.66;;;10.83;100.00
43757;BME280;73222;41.866;12.462;2024-03-02T03:19:26;100496.81;;;10.84;100.00
43757;BME280;73222;41.866;12.462;2024-03-02T03:21:51;100495.97;;;10.79;100.00
43757;BME280;73222;41.866;12.462;2024-03-02T03:24:16;100491.63;;;10.80;100.00
43757;BME280;73222;41.866;12.462;2024-03-02T03:26:42;100496.81;;;10.84;100.00
43757;BME280;73222;41.866;12.462;2024-03-02T03:29:07;100494.25;;;10.88;100.00
43757;BME280;73222;41.866;12.462;2024-03-02T03:31:32;100495.06;;;10.82;100.00
43757;BME280;73222;41.866;12.462;2024-03-02T03:33:58;100505.44;;;10.82;100.00
43757;BME280;73222;41.866;12.462;2024-03-02T03:36:23;100501.13;;;10.85;100.00
43757;BME280;73222;41.866;12.462;2024-03-02T03:38:49;100509.78;;;10.91;100.00
43757;BME280;73222;41.866;12.462;2024-03-02T03:41:14;100504.59;;;10.88;100.00
43757;BME280;73222;41.866;12.462;2024-03-02T03:43:40;100507.16;;;10.78;100.00
43757;BME280;73222;41.866;12.462;2024-03-02T03:46:05;100508.03;;;10.74;100.00
43757;BME280;73222;41.866;12.462;2024-03-02T03:48:31;100514.06;;;10.75;100.00
43757;BME280;73222;41.866;12.462;2024-03-02T03:50:56;100520.97;;;10.79;100.00
43757;BME280;73222;41.866;12.462;2024-03-02T03:53:22;100520.97;;;10.76;100.00
43757;BME280;73222;41.866;12.462;2024-03-02T03:55:47;100525.28;;;10.78;100.00
43757;BME280;73222;41.866;12.462;2024-03-02T03:58:14;100526.13;;;10.77;100.00
43757;BME280;73222;41.866;12.462;2024-03-02T04:00:41;100531.34;;;10.80;100.00
43757;BME280;73222;41.866;12.462;2024-03-02T04:03:07;100539.13;;;10.80;100.00
43757;BME280;73222;41.866;12.462;2024-03-02T04:05:32;100529.59;;;10.81;100.00
43757;BME280;73222;41.866;12.462;2024-03-02T04:07:58;100523.56;;;10.83;100.00
43757;BME280;73222;41.866;12.462;2024-03-02T04:10:23;100523.56;;;10.80;100.00
43757;BME280;73222;41.866;12.462;2024-03-02T04:12:49;100523.56;;;10.86;100.00
43757;BME280;73222;41.866;12.462;2024-03-02T04:15:15;100527.03;;;10.89;100.00
43757;BME280;73222;41.866;12.462;2024-03-02T04:17:41;100521.00;;;10.85;100.00
43757;BME280;73222;41.866;12.462;2024-03-02T04:20:07;100528.75;;;10.88;100.00
43757;BME280;73222;41.866;12.462;2024-03-02T04:22:35;100529.63;;;10.89;100.00
43757;BME280;73222;41.866;12.462;2024-03-02T04:25:02;100537.38;;;10.95;100.00
43757;BME280;73222;41.866;12.462;2024-03-02T04:27:29;100537.38;;;10.92;100.00
43757;BME280;73222;41.866;12.462;2024-03-02T04:29:56;100553.78;;;10.91;100.00
43757;BME280;73222;41.866;12.462;2024-03-02T04:32:23;100551.19;;;10.91;100.00
43757;BME280;73222;41.866;12.462;2024-03-02T04:34:48;100561.56;;;10.88;100.00
43757;BME280;73222;41.866;12.462;2024-03-02T04:37:14;100563.28;;;10.89;100.00
43757;BME280;73222;41.866;12.462;2024-03-02T04:39:39;100574.53;;;10.88;100.00
43757;BME280;73222;41.866;12.462;2024-03-02T04:42:05;100577.09;;;10.88;100.00
43757;BME280;73222;41.866;12.462;2024-03-02T04:44:30;100570.19;;;10.86;100.00
43757;BME280;73222;41.866;12.462;2024-03-02T04:46:56;100576.22;;;10.87;100.00
43757;BME280;73222;41.866;12.462;2024-03-02T04:49:21;100572.75;;;10.86;100.00
43757;BME280;73222;41.866;12.462;2024-03-02T04:51:46;100585.75;;;10.90;100.00
43757;BME280;73222;41.866;12.462;2024-03-02T04:54:12;100587.47;;;10.91;100.00
43757;BME280;73222;41.866;12.462;2024-03-02T04:56:39;100598.69;;;10.90;100.00
43757;BME280;73222;41.866;12.462;2024-03-02T04:59:18;100600.41;;;10.91;100.00
43757;BME280;73222;41.866;12.462;2024-03-02T05:01:44;100589.19;;;10.89;100.00
43757;BME280;73222;41.866;12.462;2024-03-02T05:04:09;100597.81;;;10.88;100.00
43757;BME280;73222;41.866;12.462;2024-03-02T05:06:40;100598.66;;;10.86;100.00
43757;BME280;73222;41.866;12.462;2024-03-02T05:09:06;100604.72;;;10.92;100.00
43757;BME280;73222;41.866;12.462;2024-03-02T05:11:31;100606.47;;;10.90;100.00
43757;BME280;73222;41.866;12.462;2024-03-02T05:14:06;100607.31;;;10.92;100.00
43757;BME280;73222;41.866;12.462;2024-03-02T05:16:35;100610.78;;;10.91;100.00
43757;BME280;73222;41.866;12.462;2024-03-02T05:19:02;100615.09;;;10.95;100.00
43757;BME280;73222;41.866;12.462;2024-03-02T05:21:27;100615.97;;;10.92;100.00
43757;BME280;73222;41.866;12.462;2024-03-02T05:23:52;100623.75;;;10.97;100.00
43757;BME280;73222;41.866;12.462;2024-03-02T05:26:18;100622.00;;;10.99;100.00
43757;BME280;73222;41.866;12.462;2024-03-02T05:28:43;100628.91;;;11.00;100.00
43757;BME280;73222;41.866;12.462;2024-03-02T05:31:10;100641.91;;;11.03;100.00
43757;BME280;73222;41.866;12.462;2024-03-02T05:33:37;100627.19;;;10.99;100.00
43757;BME280;73222;41.866;12.462;2024-03-02T05:36:03;100644.47;;;11.00;100.00
43757;BME280;73222;41.866;12.462;2024-03-02T05:38:29;100647.06;;;10.97;100.00
43757;BME280;73222;41.866;12.462;2024-03-02T05:40:55;100644.44;;;10.94;100.00
43757;BME280;73222;41.866;12.462;2024-03-02T05:43:20;100653.06;;;10.93;100.00
43757;BME280;73222;41.866;12.462;2024-03-02T05:45:45;100646.16;;;10.85;100.00
43757;BME280;73222;41.866;12.462;2024-03-02T05:48:11;100654.75;;;10.78;100.00
43757;BME280;73222;41.866;12.462;2024-03-02T05:50:36;100649.63;;;10.88;100.00
43757;BME280;73222;41.866;12.462;2024-03-02T05:53:02;100643.56;;;10.82;100.00
43757;BME280;73222;41.866;12.462;2024-03-02T05:55:27;100641.84;;;10.89;100.00
43757;BME280;73222;41.866;12.462;2024-03-02T05:57:52;100637.53;;;10.90;100.00
43757;BME280;73222;41.866;12.462;2024-03-02T06:00:37;100642.72;;;10.93;100.00
43757;BME280;73222;41.866;12.462;2024-03-02T06:03:04;100645.34;;;11.01;100.00
43757;BME280;73222;41.866;12.462;2024-03-02T06:05:29;100636.72;;;11.08;100.00
43757;BME280;73222;41.866;12.462;2024-03-02T06:07:54;100641.91;;;11.14;100.00
43757;BME280;73222;41.866;12.462;2024-03-02T06:10:20;100645.34;;;11.13;100.00
43757;BME280;73222;41.866;12.462;2024-03-02T06:12:46;100646.25;;;11.23;100.00
43757;BME280;73222;41.866;12.462;2024-03-02T06:15:11;100632.41;;;11.24;100.00
43757;BME280;73222;41.866;12.462;2024-03-02T06:17:36;100637.63;;;11.30;100.00
43757;BME280;73222;41.866;12.462;2024-03-02T06:20:02;100638.47;;;11.27;100.00
43757;BME280;73222;41.866;12.462;2024-03-02T06:22:28;100648.00;;;11.35;100.00
43757;BME280;73222;41.866;12.462;2024-03-02T06:24:53;100642.81;;;11.36;100.00
43757;BME280;73222;41.866;12.462;2024-03-02T06:27:18;100647.09;;;11.39;100.00
43757;BME280;73222;41.866;12.462;2024-03-02T06:29:44;100651.44;;;11.38;100.00
43757;BME280;73222;41.866;12.462;2024-03-02T06:32:09;100646.25;;;11.38;100.00
43757;BME280;73222;41.866;12.462;2024-03-02T06:34:35;100660.09;;;11.37;100.00
43757;BME280;73222;41.866;12.462;2024-03-02T06:37:00;100660.06;;;11.39;100.00
43757;BME280;73222;41.866;12.462;2024-03-02T06:39:25;100667.84;;;11.40;100.00
43757;BME280;73222;41.866;12.462;2024-03-02T06:41:51;100664.41;;;11.37;100.00
43757;BME280;73222;41.866;12.462;2024-03-02T06:44:17;100672.19;;;11.38;100.00
43757;BME280;73222;41.866;12.462;2024-03-02T06:46:42;100672.19;;;11.38;100.00
43757;BME280;73222;41.866;12.462;2024-03-02T06:49:07;100679.97;;;11.40;100.00
43757;BME280;73222;41.866;12.462;2024-03-02T06:51:34;100684.28;;;11.46;100.00
43757;BME280;73222;41.866;12.462;2024-03-02T06:54:00;100689.47;;;11.46;100.00
43757;BME280;73222;41.866;12.462;2024-03-02T06:56:25;100690.31;;;11.46;100.00
43757;BME280;73222;41.866;12.462;2024-03-02T06:58:51;100711.06;;;11.51;100.00
43757;BME280;73222;41.866;12.462;2024-03-02T07:01:17;100717.13;;;11.56;100.00
43757;BME280;73222;41.866;12.462;2024-03-02T07:03:42;100724.06;;;11.54;100.00
43757;BME280;73222;41.866;12.462;2024-03-02T07:06:09;100733.56;;;11.58;100.00
43757;BME280;73222;41.866;12.462;2024-03-02T07:08:34;100737.91;;;11.68;100.00
43757;BME280;73222;41.866;12.462;2024-03-02T07:11:00;100743.09;;;11.72;100.00
43757;BME280;73222;41.866;12.462;2024-03-02T07:13:25;100745.69;;;11.72;100.00
43757;BME280;73222;41.866;12.462;2024-03-02T07:15:51;100746.53;;;11.71;100.00
43757;BME280;73222;41.866;12.462;2024-03-02T07:18:31;100740.50;;;11.76;100.00
43757;BME280;73222;41.866;12.462;2024-03-02T07:20:57;100744.84;;;12.01;100.00
43757;BME280;73222;41.866;12.462;2024-03-02T07:23:26;100745.72;;;12.28;100.00
43757;BME280;73222;41.866;12.462;2024-03-02T07:25:53;100737.00;;;12.58;100.00
43757;BME280;73222;41.866;12.462;2024-03-02T07:28:22;100720.28;;;13.23;100.00
43757;BME280;73222;41.866;12.462;2024-03-02T07:31:00;100698.50;;;13.51;100.00
43757;BME280;73222;41.866;12.462;2024-03-02T07:33:26;100669.69;;;13.72;100.00
43757;BME280;73222;41.866;12.462;2024-03-02T07:35:52;100655.78;;;13.78;100.00
43757;BME280;73222;41.866;12.462;2024-03-02T07:38:22;100652.31;;;13.76;100.00
43757;BME280;73222;41.866;12.462;2024-03-02T07:40:48;100645.59;;;13.53;100.00
43757;BME280;73222;41.866;12.462;2024-03-02T07:43:17;100630.47;;;15.34;100.00
43757;BME280;73222;41.866;12.462;2024-03-02T07:45:44;100591.09;;;17.23;100.00
43757;BME280;73222;41.866;12.462;2024-03-02T07:48:10;100562.50;;;18.76;100.00
43757;BME280;73222;41.866;12.462;2024-03-02T07:50:35;100550.53;;;19.99;100.00
43757;BME280;73222;41.866;12.462;2024-03-02T07:53:02;100552.13;;;20.29;100.00
43757;BME280;73222;41.866;12.462;2024-03-02T07:55:29;100554.97;;;18.65;100.00
43757;BME280;73222;41.866;12.462;2024-03-02T07:57:55;100557.38;;;17.47;100.00
43757;BME280;73222;41.866;12.462;2024-03-02T08:00:20;100566.06;;;19.29;100.00
43757;BME280;73222;41.866;12.462;2024-03-02T08:02:46;100566.75;;;20.81;100.00
43757;BME280;73222;41.866;12.462;2024-03-02T08:05:11;100567.66;;;22.07;100.00
43757;BME280;73222;41.866;12.462;2024-03-02T08:07:37;100568.25;;;20.88;100.00
43757;BME280;73222;41.866;12.462;2024-03-02T08:10:03;100571.03;;;21.49;100.00
43757;BME280;73222;41.866;12.462;2024-03-02T08:12:28;100568.81;;;20.96;100.00
43757;BME280;73222;41.866;12.462;2024-03-02T08:14:53;100569.41;;;21.67;100.00
43757;BME280;73222;41.866;12.462;2024-03-02T08:17:19;100571.50;;;21.38;100.00
43757;BME280;73222;41.866;12.462;2024-03-02T08:19:44;100578.41;;;20.29;100.00
43757;BME280;73222;41.866;12.462;2024-03-02T08:22:10;100585.81;;;19.41;100.00
43757;BME280;73222;41.866;12.462;2024-03-02T08:24:36;100588.44;;;18.86;100.00
43757;BME280;73222;41.866;12.462;2024-03-02T08:27:01;100583.19;;;18.57;100.00
43757;BME280;73222;41.866;12.462;2024-03-02T08:29:27;100596.53;;;17.51;100.00
43757;BME280;73222;41.866;12.462;2024-03-02T08:31:53;100607.34;;;16.98;100.00
43757;BME280;73222;41.866;12.462;2024-03-02T08:34:18;100607.81;;;16.35;100.00
43757;BME280;73222;41.866;12.462;2024-03-02T08:36:44;100615.38;;;16.05;100.00
43757;BME280;73222;41.866;12.462;2024-03-02T08:39:10;100625.66;;;16.14;100.00
43757;BME280;73222;41.866;12.462;2024-03-02T08:41:46;100628.59;;;15.97;100.00
43757;BME280;73222;41.866;12.462;2024-03-02T08:44:12;100632.72;;;16.09;100.00
43757;BME280;73222;41.866;12.462;2024-03-02T08:46:39;100633.41;;;16.19;100.00
43757;BME280;73222;41.866;12.462;2024-03-02T08:49:04;100640.31;;;15.71;100.00
43757;BME280;73222;41.866;12.462;2024-03-02T08:51:30;100644.94;;;15.53;100.00
43757;BME280;73222;41.866;12.462;2024-03-02T08:53:56;100656.75;;;15.76;100.00
43757;BME280;73222;41.866;12.462;2024-03-02T08:56:22;100660.22;;;15.78;100.00
43757;BME280;73222;41.866;12.462;2024-03-02T08:58:49;100650.19;;;16.05;100.00
43757;BME280;73222;41.866;12.462;2024-03-02T09:01:14;100644.38;;;17.20;100.00
43757;BME280;73222;41.866;12.462;2024-03-02T09:03:39;100640.53;;;18.38;100.00
43757;BME280;73222;41.866;12.462;2024-03-02T09:06:05;100632.41;;;18.77;100.00
43757;BME280;73222;41.866;12.462;2024-03-02T09:08:30;100637.25;;;18.30;100.00
43757;BME280;73222;41.866;12.462;2024-03-02T09:10:56;100634.47;;;17.33;100.00
43757;BME280;73222;41.866;12.462;2024-03-02T09:13:21;100643.94;;;17.01;100.00
43757;BME280;73222;41.866;12.462;2024-03-02T09:15:47;100647.31;;;16.64;100.00
43757;BME280;73222;41.866;12.462;2024-03-02T09:18:13;100645.41;;;16.70;100.00
43757;BME280;73222;41.866;12.462;2024-03-02T09:20:38;100650.19;;;18.96;100.00
43757;BME280;73222;41.866;12.462;2024-03-02T09:23:04;100632.97;;;21.58;100.00
43757;BME280;73222;41.866;12.462;2024-03-02T09:25:29;100639.19;;;23.69;100.00
43757;BME280;73222;41.866;12.462;2024-03-02T09:27:54;100635.47;;;23.38;100.00
43757;BME280;73222;41.866;12.462;2024-03-02T09:30:20;100636.09;;;24.30;100.00
43757;BME280;73222;41.866;12.462;2024-03-02T09:32:45;100630.44;;;23.14;100.00
43757;BME280;73222;41.866;12.462;2024-03-02T09:35:10;100624.94;;;21.40;100.00
43757;BME280;73222;41.866;12.462;2024-03-02T09:37:37;100633.00;;;20.21;100.00
43757;BME280;73222;41.866;12.462;2024-03-02T09:40:03;100637.34;;;19.44;100.00
43757;BME280;73222;41.866;12.462;2024-03-02T09:42:29;100634.47;;;18.66;100.00
43757;BME280;73222;41.866;12.462;2024-03-02T09:44:54;100635.47;;;17.97;100.00
43757;BME280;73222;41.866;12.462;2024-03-02T09:47:20;100638.50;;;17.81;100.00
43757;BME280;73222;41.866;12.462;2024-03-02T09:49:45;100641.91;;;17.14;100.00
43757;BME280;73222;41.866;12.462;2024-03-02T09:52:11;100654.03;;;16.75;100.00
43757;BME280;73222;41.866;12.462;2024-03-02T09:54:37;100658.91;;;16.50;100.00
43757;BME280;73222;41.866;12.462;2024-03-02T09:57:04;100669.41;;;16.47;100.00
43757;BME280;73222;41.866;12.462;2024-03-02T09:59:29;100668.91;;;16.28;100.00
43757;BME280;73222;41.866;12.462;2024-03-02T10:04:25;100680.13;;;16.34;100.00
43757;BME280;73222;41.866;12.462;2024-03-02T10:06:50;100673.47;;;16.62;100.00
43757;BME280;73222;41.866;12.462;2024-03-02T10:09:37;100683.75;;;16.71;100.00
43757;BME280;73222;41.866;12.462;2024-03-02T10:12:06;100669.41;;;17.67;100.00
43757;BME280;73222;41.866;12.462;2024-03-02T10:14:32;100670.75;;;18.18;100.00
43757;BME280;73222;41.866;12.462;2024-03-02T10:17:06;100651.53;;;21.77;100.00
43757;BME280;73222;41.866;12.462;2024-03-02T10:19:32;100656.25;;;24.15;100.00
43757;BME280;73222;41.866;12.462;2024-03-02T10:22:03;100654.00;;;26.13;99.25
43757;BME280;73222;41.866;12.462;2024-03-02T10:24:42;100660.91;;;27.56;84.24
43757;BME280;73222;41.866;12.462;2024-03-02T10:27:27;100652.78;;;24.96;93.10
43757;BME280;73222;41.866;12.462;2024-03-02T10:29:54;100650.47;;;22.22;100.00
43757;BME280;73222;41.866;12.462;2024-03-02T10:32:22;100648.78;;;20.44;100.00
43757;BME280;73222;41.866;12.462;2024-03-02T10:34:48;100650.72;;;20.63;100.00
43757;BME280;73222;41.866;12.462;2024-03-02T10:37:15;100657.72;;;20.40;100.00
43757;BME280;73222;41.866;12.462;2024-03-02T10:39:42;100654.78;;;19.99;100.00
43757;BME280;73222;41.866;12.462;2024-03-02T10:42:08;100657.91;;;19.02;100.00
43757;BME280;73222;41.866;12.462;2024-03-02T10:44:34;100657.03;;;19.02;100.00
43757;BME280;73222;41.866;12.462;2024-03-02T10:47:01;100655.25;;;17.76;100.00
43757;BME280;73222;41.866;12.462;2024-03-02T10:49:31;100670.09;;;17.39;100.00
43757;BME280;73222;41.866;12.462;2024-03-02T10:52:00;100670.53;;;17.20;100.00
43757;BME280;73222;41.866;12.462;2024-03-02T10:54:26;100680.88;;;16.82;100.00
43757;BME280;73222;41.866;12.462;2024-03-02T10:56:53;100682.75;;;16.77;100.00
43757;BME280;73222;41.866;12.462;2024-03-02T10:59:35;100686.09;;;16.84;100.00
43757;BME280;73222;41.866;12.462;2024-03-02T11:02:03;100685.78;;;16.98;100.00
43757;BME280;73222;41.866;12.462;2024-03-02T11:04:30;100693.72;;;16.95;100.00
43757;BME280;73222;41.866;12.462;2024-03-02T11:07:02;100689.00;;;17.12;100.00
43757;BME280;73222;41.866;12.462;2024-03-02T11:09:28;100682.50;;;17.30;100.00
43757;BME280;73222;41.866;12.462;2024-03-02T11:14:31;100671.09;;;17.33;100.00
43757;BME280;73222;41.866;12.462;2024-03-02T11:17:01;100664.34;;;17.23;100.00
43757;BME280;73222;41.866;12.462;2024-03-02T11:19:28;100669.97;;;17.06;100.00
43757;BME280;73222;41.866;12.462;2024-03-02T11:21:55;100664.66;;;17.10;100.00
43757;BME280;73222;41.866;12.462;2024-03-02T11:26:46;100671.25;;;17.27;100.00
43757;BME280;73222;41.866;12.462;2024-03-02T11:32:03;100661.72;;;17.61;100.00
43757;BME280;73222;41.866;12.462;2024-03-02T11:34:34;100654.19;;;17.83;100.00
43757;BME280;73222;41.866;12.462;2024-03-02T11:37:03;100655.50;;;17.99;100.00
43757;BME280;73222;41.866;12.462;2024-03-02T11:39:29;100656.03;;;18.14;100.00
43757;BME280;73222;41.866;12.462;2024-03-02T11:41:56;100661.03;;;18.22;100.00
43757;BME280;73222;41.866;12.462;2024-03-02T11:44:22;100652.38;;;17.85;100.00
43757;BME280;73222;41.866;12.462;2024-03-02T11:46:58;100644.66;;;17.08;100.00
43757;BME280;73222;41.866;12.462;2024-03-02T11:49:49;100640.31;;;17.07;100.00
43757;BME280;73222;41.866;12.462;2024-03-02T11:52:15;100654.31;;;17.04;100.00
43757;BME280;73222;41.866;12.462;2024-03-02T11:54:46;100650.31;;;17.27;100.00
43757;BME280;73222;41.866;12.462;2024-03-02T11:57:19;100635.50;;;17.26;100.00
43757;BME280;73222;41.866;12.462;2024-03-02T11:59:45;100629.94;;;17.40;100.00
43757;BME280;73222;41.866;12.462;2024-03-02T12:02:20;100634.44;;;16.95;100.00
43757;BME280;73222;41.866;12.462;2024-03-02T12:04:47;100645.13;;;16.84;100.00
43757;BME280;73222;41.866;12.462;2024-03-02T12:07:19;100645.97;;;16.44;100.00
43757;BME280;73222;41.866;12.462;2024-03-02T12:09:49;100644.03;;;16.54;100.00
43757;BME280;73222;41.866;12.462;2024-03-02T12:12:15;100646.88;;;16.43;100.00
43757;BME280;73222;41.866;12.462;2024-03-02T12:14:53;100654.06;;;16.30;100.00
43757;BME280;73222;41.866;12.462;2024-03-02T12:17:22;100647.38;;;17.03;100.00
43757;BME280;73222;41.866;12.462;2024-03-02T12:19:48;100651.66;;;17.43;100.00
43757;BME280;73222;41.866;12.462;2024-03-02T12:22:14;100647.84;;;17.92;100.00
43757;BME280;73222;41.866;12.462;2024-03-02T12:24:41;100636.19;;;18.67;100.00
43757;BME280;73222;41.866;12.462;2024-03-02T12:27:06;100628.50;;;22.22;100.00
43757;BME280;73222;41.866;12.462;2024-03-02T12:29:32;100617.41;;;25.14;100.00
43757;BME280;73222;41.866;12.462;2024-03-02T12:31:58;100614.03;;;27.15;100.00
43757;BME280;73222;41.866;12.462;2024-03-02T12:34:24;100617.53;;;26.17;90.56
43757;BME280;73222;41.866;12.462;2024-03-02T12:36:51;100616.88;;;26.42;92.40
43757;BME280;73222;41.866;12.462;2024-03-02T12:39:20;100608.31;;;26.08;92.28
43757;BME280;73222;41.866;12.462;2024-03-02T12:41:49;100605.38;;;25.38;97.85
43757;BME280;73222;41.866;12.462;2024-03-02T12:44:16;100612.41;;;24.93;90.15